Choctaw Beach, Florida
Current Conditions -  °F | °C
As of 6:55 AM on Saturday 20 Dec 2014 (Local Time) from KVPS Reporting Station
Light Rain Light Rain  
Wind Chill: 43°   Ceiling: 3000
Heat Index: 49°   Visibility: 7mi
Dew Point: 47°   Wind: 14mph
Humidity: 93%   Direction: 50°NE
Pressure: 30.11"   Gusts: NA
Location:  30.5136°N, 86.4378°W
Report Text: KVPS 201255Z 05012KT 7SM -RA FEW006 OVC030 09/08 A3011 RMK AO2A SLP203 P0017 T00930082 $
Loading
Personal Weather Stations






























Interactive Weather Map New forecast layout! Learn more

10-Day Weather Forecast

Advertisements
Track Severe Weather on mobile